createdAt,value
2022-10-05T00:00:28.288Z,9.57
2022-10-05T00:03:15.519Z,10.27
2022-10-05T00:05:45.833Z,11.13
2022-10-05T00:08:24.027Z,12.02
2022-10-05T00:10:52.594Z,14.02
2022-10-05T00:13:30.443Z,13.75
2022-10-05T00:16:19.919Z,11.77
2022-10-05T00:18:51.974Z,9.77
2022-10-05T00:21:26.658Z,11.77
2022-10-05T00:23:58.113Z,14.70
2022-10-05T00:26:33.280Z,10.05
2022-10-05T00:29:02.521Z,10.82
2022-10-05T00:31:36.279Z,12.07
2022-10-05T00:34:03.304Z,12.20
2022-10-05T00:36:30.429Z,12.95
2022-10-05T00:38:57.225Z,11.18
2022-10-05T00:42:08.571Z,9.57
2022-10-05T00:44:58.071Z,6.88
2022-10-05T00:47:59.882Z,9.18
2022-10-05T00:51:21.099Z,12.82
2022-10-05T00:54:05.831Z,7.47
2022-10-05T00:56:40.138Z,9.80
2022-10-05T00:59:42.624Z,10.30
2022-10-05T01:02:30.905Z,11.50
2022-10-05T01:05:24.221Z,12.32
2022-10-05T01:08:13.354Z,9.55
2022-10-05T01:11:02.157Z,10.18
2022-10-05T01:13:49.268Z,9.77
2022-10-05T01:16:51.056Z,10.52
2022-10-05T01:19:45.993Z,10.18
2022-10-05T01:22:54.042Z,10.98
2022-10-05T01:25:51.667Z,12.00
2022-10-05T01:28:28.927Z,11.10
2022-10-05T01:31:23.022Z,11.05
2022-10-05T01:34:12.713Z,11.35
2022-10-05T01:37:21.253Z,8.75
2022-10-05T01:40:58.371Z,9.02
2022-10-05T01:43:46.603Z,10.07
2022-10-05T01:46:46.091Z,10.35
2022-10-05T01:49:54.282Z,14.68
2022-10-05T01:53:00.103Z,13.02
2022-10-05T01:55:39.156Z,14.23
2022-10-05T01:58:30.458Z,11.98
2022-10-05T02:01:10.380Z,9.45
2022-10-05T02:03:47.533Z,11.93
2022-10-05T02:06:20.517Z,10.75
2022-10-05T02:08:53.638Z,13.80
2022-10-05T02:11:20.837Z,8.68
2022-10-05T02:14:10.548Z,9.70
2022-10-05T02:16:44.366Z,9.77
2022-10-05T02:19:35.084Z,9.10
2022-10-05T02:22:10.102Z,9.18
2022-10-05T02:24:46.289Z,9.00
2022-10-05T02:27:21.426Z,14.45
2022-10-05T02:32:27.424Z,9.35
2022-10-05T02:35:04.083Z,9.40
2022-10-05T02:38:07.514Z,7.80
2022-10-05T02:40:55.760Z,7.30
2022-10-05T02:43:50.207Z,8.48
2022-10-05T02:46:36.709Z,8.00
2022-10-05T02:49:42.279Z,8.88
2022-10-05T02:52:28.118Z,10.25
2022-10-05T02:55:24.741Z,12.05
2022-10-05T02:58:16.382Z,11.35
2022-10-05T03:01:03.094Z,9.70
2022-10-05T03:03:45.125Z,7.95
2022-10-05T03:06:27.506Z,10.50
2022-10-05T03:09:05.964Z,12.75
2022-10-05T03:12:00.208Z,9.40
2022-10-05T03:14:50.827Z,9.18
2022-10-05T03:17:23.320Z,10.57
2022-10-05T03:20:17.276Z,7.30
2022-10-05T03:23:01.452Z,10.00
2022-10-05T03:26:06.082Z,8.80
2022-10-05T03:28:57.746Z,7.80
2022-10-05T03:31:51.318Z,7.18
2022-10-05T03:34:53.915Z,9.82
2022-10-05T03:37:42.000Z,9.07
2022-10-05T03:40:40.336Z,8.15
2022-10-05T03:43:41.843Z,5.97
2022-10-05T03:46:40.335Z,7.82
2022-10-05T03:49:52.789Z,8.55
2022-10-05T03:52:36.613Z,6.72
2022-10-05T03:55:34.087Z,5.72
2022-10-05T03:58:14.995Z,10.10
2022-10-05T04:00:49.021Z,8.10
2022-10-05T04:03:30.246Z,7.47
2022-10-05T04:06:43.250Z,7.85
2022-10-05T04:09:30.321Z,7.47
2022-10-05T04:12:15.363Z,8.23
2022-10-05T04:14:51.487Z,8.38
2022-10-05T04:17:33.131Z,6.25
2022-10-05T04:20:17.671Z,7.75
2022-10-05T04:23:17.123Z,7.63
2022-10-05T04:25:53.977Z,9.00
2022-10-05T04:28:45.097Z,8.30
2022-10-05T04:31:28.230Z,6.32
2022-10-05T04:34:27.422Z,9.55
2022-10-05T04:37:06.105Z,8.05
2022-10-05T04:40:28.100Z,9.45
2022-10-05T04:43:17.613Z,7.30
2022-10-05T04:46:12.978Z,9.35
2022-10-05T04:49:04.177Z,7.95
2022-10-05T04:51:42.671Z,11.00
2022-10-05T04:54:56.111Z,8.02
2022-10-05T04:57:32.456Z,9.13
2022-10-05T05:00:22.630Z,8.68
2022-10-05T05:03:20.226Z,12.45
2022-10-05T05:06:18.367Z,9.10
2022-10-05T05:09:22.631Z,7.55
2022-10-05T05:12:23.586Z,7.05
2022-10-05T05:15:26.777Z,7.82
2022-10-05T05:18:26.579Z,13.13
2022-10-05T05:21:35.506Z,10.07
2022-10-05T05:24:30.407Z,8.88
2022-10-05T05:27:18.817Z,8.63
2022-10-05T05:30:46.007Z,7.15
2022-10-05T05:36:32.179Z,8.07
2022-10-05T05:39:36.639Z,9.82
2022-10-05T05:42:53.278Z,9.32
2022-10-05T05:45:43.802Z,13.07
2022-10-05T05:48:26.896Z,7.10
2022-10-05T05:51:07.703Z,8.30
2022-10-05T05:53:44.455Z,7.10
2022-10-05T05:56:29.363Z,8.25
2022-10-05T05:59:20.410Z,10.18
2022-10-05T06:02:07.014Z,8.02
2022-10-05T06:04:52.492Z,9.88
2022-10-05T06:07:30.327Z,9.07
2022-10-05T06:10:58.685Z,9.43
2022-10-05T06:13:38.518Z,7.15
2022-10-05T06:16:46.436Z,10.80
2022-10-05T06:19:18.633Z,9.32
2022-10-05T06:22:05.565Z,6.88
2022-10-05T06:25:11.816Z,7.35
2022-10-05T06:28:13.479Z,6.70
2022-10-05T06:30:58.542Z,9.70
2022-10-05T06:33:53.895Z,11.05
2022-10-05T06:36:26.198Z,13.52
2022-10-05T06:39:31.924Z,8.43
2022-10-05T06:42:29.244Z,9.52
2022-10-05T06:45:16.489Z,9.48
2022-10-05T06:48:08.267Z,10.45
2022-10-05T06:51:04.370Z,8.77
2022-10-05T06:54:39.394Z,8.05
2022-10-05T06:57:24.578Z,9.07
2022-10-05T07:00:17.844Z,9.73
2022-10-05T07:03:05.163Z,13.77
2022-10-05T07:06:05.852Z,8.23
2022-10-05T07:08:38.927Z,6.88
2022-10-05T07:11:27.361Z,8.63
2022-10-05T07:14:21.888Z,6.95
2022-10-05T07:17:22.445Z,6.45
2022-10-05T07:20:37.125Z,9.77
2022-10-05T07:23:45.358Z,6.60
2022-10-05T07:26:38.014Z,6.50
2022-10-05T07:29:07.460Z,7.95
2022-10-05T07:32:07.473Z,6.60
2022-10-05T07:34:49.892Z,7.22
2022-10-05T07:37:53.676Z,8.73
2022-10-05T07:40:59.179Z,7.05
2022-10-05T07:44:00.979Z,5.35
2022-10-05T07:46:55.111Z,9.32
2022-10-05T07:49:42.398Z,9.93
2022-10-05T07:52:34.922Z,7.00
2022-10-05T07:55:25.286Z,9.60
2022-10-05T07:58:23.530Z,9.30
2022-10-05T08:01:31.300Z,5.03
2022-10-05T08:04:22.926Z,4.78
2022-10-05T08:07:17.072Z,4.32
2022-10-05T08:09:54.760Z,4.47
2022-10-05T08:12:55.037Z,5.22
2022-10-05T08:15:31.619Z,4.97
2022-10-05T08:18:35.994Z,5.68
2022-10-05T08:21:11.883Z,4.80
2022-10-05T08:24:06.087Z,5.55
2022-10-05T08:26:53.183Z,4.22
2022-10-05T08:29:35.349Z,7.53
2022-10-05T08:32:26.397Z,4.35
2022-10-05T08:35:34.336Z,8.20
2022-10-05T08:38:18.539Z,4.50
2022-10-05T08:41:32.374Z,5.47
2022-10-05T08:44:37.863Z,8.27
2022-10-05T08:47:36.330Z,4.68
2022-10-05T08:50:25.183Z,6.78
2022-10-05T08:53:25.686Z,6.60
2022-10-05T08:56:33.360Z,7.10
2022-10-05T08:59:40.785Z,4.88
2022-10-05T09:02:44.534Z,3.83
2022-10-05T09:06:14.584Z,4.90
2022-10-05T09:09:15.215Z,5.25
2022-10-05T09:12:40.424Z,4.40
2022-10-05T09:16:03.353Z,4.72
2022-10-05T09:18:55.072Z,3.40
2022-10-05T09:21:58.305Z,7.53
2022-10-05T09:24:56.283Z,3.00
2022-10-05T09:28:19.601Z,3.08
2022-10-05T09:31:24.087Z,2.97
2022-10-05T09:34:32.561Z,6.93
2022-10-05T09:37:32.556Z,11.73
2022-10-05T09:40:14.721Z,3.15
2022-10-05T09:43:20.179Z,3.53
2022-10-05T09:46:25.755Z,3.58
2022-10-05T09:49:07.984Z,3.28
2022-10-05T09:52:06.330Z,3.72
2022-10-05T09:55:14.554Z,3.67
2022-10-05T09:57:53.634Z,6.97
2022-10-05T10:01:09.303Z,3.15
2022-10-05T10:03:55.457Z,4.32
2022-10-05T10:06:51.528Z,3.00
2022-10-05T10:12:53.592Z,2.97
2022-10-05T10:15:38.758Z,3.47
2022-10-05T10:18:46.063Z,4.18
2022-10-05T10:22:22.493Z,4.68
2022-10-05T10:25:52.412Z,4.85
2022-10-05T10:28:42.132Z,3.20
2022-10-05T10:31:45.882Z,3.42
2022-10-05T10:34:43.876Z,3.53
2022-10-05T10:37:35.512Z,7.13
2022-10-05T10:40:20.895Z,2.42
2022-10-05T10:43:29.951Z,3.30
2022-10-05T10:46:39.547Z,2.35
2022-10-05T10:49:35.255Z,3.85
2022-10-05T10:52:41.547Z,4.82
2022-10-05T10:55:34.072Z,7.25
2022-10-05T10:58:47.400Z,2.80
2022-10-05T11:01:32.868Z,2.55
2022-10-05T11:04:47.619Z,3.65
2022-10-05T11:07:48.423Z,2.50
2022-10-05T11:11:02.544Z,2.13
2022-10-05T11:14:02.819Z,6.90
2022-10-05T11:16:42.002Z,3.03
2022-10-05T11:20:02.632Z,3.00
2022-10-05T11:22:33.273Z,2.28
2022-10-05T11:25:44.592Z,3.08
2022-10-05T11:28:39.560Z,3.20
2022-10-05T11:31:37.977Z,3.60
2022-10-05T11:34:49.194Z,1.80
2022-10-05T11:37:51.243Z,2.42
2022-10-05T11:40:26.865Z,2.22
2022-10-05T11:43:50.583Z,2.08
2022-10-05T11:46:30.558Z,2.58
2022-10-05T11:49:23.379Z,3.67
2022-10-05T11:52:11.099Z,2.83
2022-10-05T11:55:13.507Z,2.15
2022-10-05T11:58:09.562Z,2.35
2022-10-05T12:00:44.993Z,3.42
2022-10-05T12:03:33.854Z,3.67
2022-10-05T12:06:51.816Z,3.80
2022-10-05T12:10:08.662Z,2.60
2022-10-05T12:13:02.460Z,3.08
2022-10-05T12:15:43.365Z,7.50
2022-10-05T12:18:32.658Z,2.10
2022-10-05T12:21:27.721Z,3.10
2022-10-05T12:24:26.845Z,2.53
2022-10-05T12:27:08.233Z,3.95
2022-10-05T12:30:01.612Z,2.22
2022-10-05T12:32:58.135Z,3.28
2022-10-05T12:36:01.471Z,2.70
2022-10-05T12:38:52.830Z,2.13
2022-10-05T12:41:32.271Z,1.75
2022-10-05T12:44:49.197Z,2.03
2022-10-05T12:47:53.819Z,5.00
2022-10-05T12:50:49.232Z,1.70
2022-10-05T12:53:48.435Z,4.78
2022-10-05T12:56:52.255Z,2.78
2022-10-05T12:59:46.343Z,2.97
2022-10-05T13:02:42.574Z,3.60
2022-10-05T13:05:09.618Z,1.67
2022-10-05T13:08:18.095Z,1.65
2022-10-05T13:11:35.165Z,3.13
2022-10-05T13:14:17.977Z,2.17
2022-10-05T13:17:03.915Z,2.92
2022-10-05T13:19:41.108Z,1.92
2022-10-05T13:22:37.294Z,5.97
2022-10-05T13:25:22.657Z,2.88
2022-10-05T13:28:07.777Z,13.98
2022-10-05T13:30:39.132Z,3.55
2022-10-05T13:33:18.063Z,2.78
2022-10-05T13:36:30.109Z,2.67
2022-10-05T13:39:05.546Z,7.50
2022-10-05T13:41:55.174Z,6.47
2022-10-05T13:44:53.798Z,4.28
2022-10-05T13:48:03.786Z,3.78
2022-10-05T13:50:36.264Z,2.20
2022-10-05T13:53:37.255Z,3.13
2022-10-05T13:56:22.315Z,1.80
2022-10-05T13:59:12.148Z,2.70
2022-10-05T14:01:57.037Z,2.90
2022-10-05T14:04:57.618Z,2.00
2022-10-05T14:07:38.932Z,4.45
2022-10-05T14:10:44.030Z,3.13
2022-10-05T14:13:43.454Z,2.33
2022-10-05T14:16:13.586Z,2.40
2022-10-05T14:19:27.103Z,2.10
2022-10-05T14:22:02.175Z,4.72
2022-10-05T14:24:44.231Z,7.13
2022-10-05T14:27:28.441Z,3.47
2022-10-05T14:30:25.688Z,3.47
2022-10-05T14:33:22.368Z,2.80
2022-10-05T14:35:53.623Z,3.50
2022-10-05T14:38:32.595Z,5.78
2022-10-05T14:41:19.196Z,3.05
2022-10-05T14:44:28.816Z,4.43
2022-10-05T14:47:02.834Z,3.55
2022-10-05T14:49:36.179Z,2.40
2022-10-05T14:52:32.657Z,4.28
2022-10-05T14:55:30.268Z,4.07
2022-10-05T14:58:24.910Z,4.15
2022-10-05T15:01:35.062Z,3.88
2022-10-05T15:04:37.000Z,2.10
2022-10-05T15:07:21.689Z,2.45
2022-10-05T15:10:36.979Z,3.45
2022-10-05T15:13:19.987Z,7.03
2022-10-05T15:16:05.396Z,3.88
2022-10-05T15:18:34.750Z,3.35
2022-10-05T15:21:56.262Z,4.07
2022-10-05T15:24:30.400Z,2.20
2022-10-05T15:27:03.511Z,3.70
2022-10-05T15:30:19.314Z,3.55
2022-10-05T15:33:09.309Z,2.47
2022-10-05T15:36:22.614Z,3.45
2022-10-05T15:39:36.339Z,3.90
2022-10-05T15:42:14.664Z,4.68
2022-10-05T15:45:10.781Z,3.03
2022-10-05T15:48:00.100Z,2.38
2022-10-05T15:50:45.968Z,2.47
2022-10-05T15:53:27.250Z,6.15
2022-10-05T15:56:30.034Z,4.72
2022-10-05T15:59:18.725Z,3.05
2022-10-05T16:01:57.187Z,3.00
2022-10-05T16:04:41.458Z,6.63
2022-10-05T16:07:39.463Z,4.83
2022-10-05T16:10:21.621Z,2.22
2022-10-05T16:13:10.108Z,7.55
2022-10-05T16:16:12.713Z,2.33
2022-10-05T16:19:08.278Z,4.15
2022-10-05T16:22:28.360Z,3.00
2022-10-05T16:25:08.905Z,2.88
2022-10-05T16:28:19.734Z,3.85
2022-10-05T16:31:00.196Z,3.03
2022-10-05T16:33:55.362Z,3.20
2022-10-05T16:36:53.182Z,4.57
2022-10-05T16:39:55.147Z,3.53
2022-10-05T16:42:44.044Z,4.18
2022-10-05T16:45:45.107Z,2.72
2022-10-05T16:48:26.732Z,3.28
2022-10-05T16:51:09.006Z,4.82
2022-10-05T16:53:46.621Z,3.15
2022-10-05T16:56:26.001Z,4.63
2022-10-05T16:59:36.991Z,5.68
2022-10-05T17:02:18.334Z,3.35
2022-10-05T17:05:30.482Z,6.43
2022-10-05T17:08:30.545Z,4.18
2022-10-05T17:11:22.202Z,3.55
2022-10-05T17:13:57.999Z,3.53
2022-10-05T17:17:07.092Z,3.47
2022-10-05T17:20:29.397Z,4.07
2022-10-05T17:23:29.307Z,3.75
2022-10-05T17:26:47.208Z,4.13
2022-10-05T17:29:45.882Z,8.48
2022-10-05T17:32:39.626Z,8.35
2022-10-05T17:35:39.846Z,5.68
2022-10-05T17:38:20.311Z,5.00
2022-10-05T17:41:30.411Z,4.63
2022-10-05T17:44:24.863Z,6.25
2022-10-05T17:47:01.459Z,6.70
2022-10-05T17:49:34.415Z,4.65
2022-10-05T17:52:42.409Z,3.95
2022-10-05T17:55:44.899Z,4.38
2022-10-05T17:58:56.327Z,6.13
2022-10-05T18:01:38.650Z,6.88
2022-10-05T18:04:11.932Z,7.07
2022-10-05T18:06:59.067Z,7.40
2022-10-05T18:09:27.334Z,7.65
2022-10-05T18:12:39.729Z,7.22
2022-10-05T18:15:06.815Z,7.45
2022-10-05T18:17:51.578Z,5.10
2022-10-05T18:20:30.808Z,5.30
2022-10-05T18:23:03.895Z,4.40
2022-10-05T18:25:53.391Z,5.10
2022-10-05T18:29:14.977Z,7.18
2022-10-05T18:32:36.173Z,6.68
2022-10-05T18:35:38.624Z,6.10
2022-10-05T18:38:30.092Z,7.82
2022-10-05T18:41:15.737Z,6.13
2022-10-05T18:44:34.790Z,7.05
2022-10-05T18:47:25.643Z,5.55
2022-10-05T18:50:07.044Z,7.97
2022-10-05T18:52:50.857Z,9.98
2022-10-05T18:55:28.733Z,5.60
2022-10-05T18:58:14.922Z,7.28
2022-10-05T19:01:29.923Z,8.77
2022-10-05T19:04:23.433Z,4.90
2022-10-05T19:07:15.601Z,6.32
2022-10-05T19:10:35.747Z,5.18
2022-10-05T19:13:43.381Z,4.72
2022-10-05T19:16:47.056Z,5.78
2022-10-05T19:19:36.055Z,5.03
2022-10-05T19:22:25.218Z,5.68
2022-10-05T19:25:04.472Z,7.72
2022-10-05T19:28:02.539Z,5.22
2022-10-05T19:30:59.271Z,6.25
2022-10-05T19:33:58.428Z,6.25
2022-10-05T19:37:03.348Z,7.22
2022-10-05T19:39:45.207Z,6.20
2022-10-05T19:42:53.198Z,5.93
2022-10-05T19:45:58.495Z,10.18
2022-10-05T19:48:40.681Z,12.13
2022-10-05T19:51:35.114Z,10.90
2022-10-05T19:54:21.415Z,6.05
2022-10-05T19:56:54.139Z,9.52
2022-10-05T19:59:28.454Z,8.32
2022-10-05T20:01:58.175Z,7.87
2022-10-05T20:04:49.552Z,8.95
2022-10-05T20:07:23.340Z,8.07
2022-10-05T20:10:00.512Z,9.18
2022-10-05T20:12:51.940Z,6.97
2022-10-05T20:15:42.245Z,7.80
2022-10-05T20:18:50.991Z,10.63
2022-10-05T20:21:39.639Z,6.20
2022-10-05T20:24:27.678Z,6.80
2022-10-05T20:27:16.136Z,7.72
2022-10-05T20:29:45.059Z,6.03
2022-10-05T20:32:18.196Z,7.15
2022-10-05T20:34:47.888Z,6.68
2022-10-05T20:37:20.371Z,6.95
2022-10-05T20:39:51.139Z,6.90
2022-10-05T20:42:20.833Z,8.60
2022-10-05T20:44:50.783Z,7.18
2022-10-05T20:47:20.307Z,8.10
2022-10-05T20:49:47.170Z,8.93
2022-10-05T20:52:15.828Z,8.43
2022-10-05T20:54:43.034Z,9.75
2022-10-05T20:57:10.286Z,10.35
2022-10-05T20:59:38.087Z,8.65
2022-10-05T21:02:06.139Z,11.00
2022-10-05T21:04:42.883Z,6.43
2022-10-05T21:07:10.255Z,7.30
2022-10-05T21:09:39.183Z,12.10
2022-10-05T21:12:06.020Z,11.15
2022-10-05T21:14:34.488Z,9.15
2022-10-05T21:17:02.145Z,8.80
2022-10-05T21:19:29.674Z,8.30
2022-10-05T21:22:02.508Z,9.93
2022-10-05T21:24:29.362Z,7.82
2022-10-05T21:26:57.647Z,6.47
2022-10-05T21:29:24.905Z,9.90
2022-10-05T21:31:52.052Z,11.20
2022-10-05T21:34:19.254Z,9.02
2022-10-05T21:36:46.494Z,10.52
2022-10-05T21:39:15.195Z,9.65
2022-10-05T21:41:42.026Z,7.95
2022-10-05T21:44:09.114Z,9.50
2022-10-05T21:46:38.896Z,11.75
2022-10-05T21:49:07.731Z,9.73
2022-10-05T21:51:39.300Z,8.43
2022-10-05T21:54:17.326Z,6.78
2022-10-05T21:56:50.366Z,8.70
2022-10-05T21:59:22.139Z,6.55
2022-10-05T22:01:49.185Z,8.55
2022-10-05T22:04:16.470Z,8.88
2022-10-05T22:06:43.603Z,6.57
2022-10-05T22:09:10.945Z,9.63
2022-10-05T22:11:38.392Z,7.38
2022-10-05T22:14:05.267Z,7.25
2022-10-05T22:16:38.561Z,8.05
2022-10-05T22:19:12.852Z,5.72
2022-10-05T22:21:41.836Z,8.65
2022-10-05T22:24:11.690Z,8.15
2022-10-05T22:26:41.520Z,7.50
2022-10-05T22:29:09.684Z,7.82
2022-10-05T22:31:37.199Z,6.78
2022-10-05T22:34:04.252Z,8.80
2022-10-05T22:36:33.507Z,7.07
2022-10-05T22:39:00.327Z,6.13
2022-10-05T22:41:27.139Z,5.93
2022-10-05T22:43:54.202Z,7.22
2022-10-05T22:46:21.521Z,5.97
2022-10-05T22:48:48.389Z,9.95
2022-10-05T22:51:15.844Z,6.30
2022-10-05T22:53:42.725Z,8.80
2022-10-05T22:56:13.807Z,8.43
2022-10-05T22:58:43.050Z,6.40
2022-10-05T23:01:16.398Z,5.82
2022-10-05T23:03:44.342Z,7.03
2022-10-05T23:06:19.105Z,11.95
2022-10-05T23:11:23.697Z,5.97
2022-10-05T23:13:52.369Z,6.97
2022-10-05T23:16:22.921Z,6.63
2022-10-05T23:18:52.528Z,6.18
2022-10-05T23:21:21.813Z,7.45
2022-10-05T23:23:51.092Z,9.38
2022-10-05T23:26:22.756Z,10.55
2022-10-05T23:28:50.535Z,8.20
2022-10-05T23:31:21.922Z,10.25
2022-10-05T23:33:49.312Z,9.63
2022-10-05T23:36:24.636Z,8.52
2022-10-05T23:38:52.656Z,6.50
2022-10-05T23:41:20.730Z,8.52
2022-10-05T23:43:48.151Z,9.50
2022-10-05T23:46:15.487Z,7.85
2022-10-05T23:48:42.499Z,9.02
2022-10-05T23:51:12.942Z,8.50
2022-10-05T23:53:40.262Z,9.93
2022-10-05T23:56:07.711Z,6.53
2022-10-05T23:58:34.592Z,7.97
